Time;durP1;ratioP1;P1;durP2;ratioP2;P2;SDS_P1;SDS_P2;PMS_P1;PMS_P2;Temp;Humidity;BMP_temperature;BMP_pressure;BME280_temperature;BME280_humidity;BME280_pressure;Samples;Min_cycle;Max_cycle;Signal;HPM_P1;HPM_P2
2021/11/12 00:11:47;;;;;;;0.50;0.50;;;8.20;99.90;;;;;;5034572;28;20246;-78
2021/11/12 00:13:22;;;;;;;0.50;0.50;;;8.20;99.90;;;;;;5034631;28;20188;-79
2021/11/12 00:15:52;;;;;;;16.85;13.63;;;8.10;99.90;;;;;;5034476;28;20193;-77
2021/11/12 00:18:21;;;;;;;0.50;0.40;;;8.10;99.90;;;;;;5034288;28;20193;-78
2021/11/12 00:20:49;;;;;;;0.93;0.93;;;8.10;99.90;;;;;;5033579;28;20199;-78
2021/11/12 00:23:17;;;;;;;0.50;0.40;;;8.20;99.90;;;;;;5034907;28;20196;-78
2021/11/12 00:25:47;;;;;;;0.50;0.40;;;8.10;99.90;;;;;;5034133;28;20202;-78
2021/11/12 00:28:16;;;;;;;0.50;0.40;;;8.10;99.90;;;;;;5033398;28;20322;-78
2021/11/12 00:30:54;;;;;;;0.90;0.90;;;8.00;99.90;;;;;;5033467;28;20199;-79
2021/11/12 00:33:35;;;;;;;0.50;0.40;;;8.10;99.90;;;;;;5034761;28;20217;-79
2021/11/12 00:36:13;;;;;;;0.77;0.77;;;8.00;99.90;;;;;;5034420;28;20207;-79
2021/11/12 00:38:44;;;;;;;0.50;0.40;;;8.00;99.90;;;;;;5033845;28;20235;-79
2021/11/12 00:41:17;;;;;;;0.50;0.50;;;8.00;99.90;;;;;;5033686;28;20185;-77
2021/11/12 00:43:46;;;;;;;0.50;0.40;;;8.00;99.90;;;;;;5033782;28;20249;-78
2021/11/12 00:46:17;;;;;;;2.65;1.30;;;7.90;99.90;;;;;;5034356;28;20222;-78
2021/11/12 00:48:47;;;;;;;0.50;0.40;;;7.90;99.90;;;;;;5034019;28;20391;-79
2021/11/12 00:51:25;;;;;;;0.50;0.40;;;7.90;99.90;;;;;;5033685;28;20234;-78
2021/11/12 00:54:06;;;;;;;0.50;0.40;;;7.90;99.90;;;;;;5034111;28;20228;-77
2021/11/12 00:56:42;;;;;;;3.38;2.45;;;7.90;99.90;;;;;;5034000;28;20237;-78
2021/11/12 00:59:09;;;;;;;0.50;0.40;;;7.90;99.90;;;;;;5033478;28;20223;-78
2021/11/12 01:01:39;;;;;;;0.50;0.40;;;7.90;99.90;;;;;;5033919;28;20196;-79
2021/11/12 01:04:09;;;;;;;0.50;0.40;;;7.80;99.90;;;;;;5034357;28;20204;-79
2021/11/12 01:06:37;;;;;;;0.50;0.40;;;7.80;99.90;;;;;;5033881;28;20221;-78
2021/11/12 01:09:09;;;;;;;0.50;0.40;;;7.70;99.90;;;;;;5034179;28;20198;-78
2021/11/12 01:11:35;;;;;;;0.50;0.40;;;7.60;99.90;;;;;;5033296;28;20289;-79
2021/11/12 01:14:04;;;;;;;0.50;0.40;;;7.60;99.90;;;;;;5034360;28;20561;-76
2021/11/12 01:16:32;;;;;;;0.50;0.40;;;7.60;99.90;;;;;;5033642;28;20216;-79
2021/11/12 01:18:59;;;;;;;0.50;0.40;;;7.60;99.90;;;;;;5033555;28;20225;-77
2021/11/12 01:21:26;;;;;;;0.50;0.40;;;7.60;99.90;;;;;;5033284;28;20199;-79
2021/11/12 01:23:56;;;;;;;0.50;0.40;;;7.60;99.90;;;;;;5033567;28;20193;-79
2021/11/12 01:26:26;;;;;;;0.50;0.40;;;7.60;99.90;;;;;;5034072;28;20220;-78
2021/11/12 01:28:53;;;;;;;1.15;1.15;;;7.60;99.90;;;;;;5033484;28;20219;-78
2021/11/12 01:31:22;;;;;;;0.50;0.38;;;7.60;99.90;;;;;;5034855;28;20192;-78
2021/11/12 01:33:49;;;;;;;0.50;0.40;;;7.60;99.90;;;;;;5034339;28;20219;-78
2021/11/12 01:36:27;;;;;;;0.50;0.40;;;7.50;99.90;;;;;;5034934;28;20596;-77
2021/11/12 01:38:57;;;;;;;0.50;0.40;;;7.40;99.90;;;;;;5037003;28;20249;-77
2021/11/12 01:41:25;;;;;;;0.50;0.40;;;7.30;99.90;;;;;;5040210;28;20268;-78
2021/11/12 01:43:53;;;;;;;0.50;0.40;;;7.30;99.90;;;;;;5040555;28;20244;-78
2021/11/12 01:46:28;;;;;;;0.50;0.40;;;7.20;99.90;;;;;;5039524;28;20254;-77
2021/11/12 01:51:45;;;;;;;0.50;0.40;;;7.30;99.90;;;;;;5039313;28;20186;-79
2021/11/12 01:57:21;;;;;;;0.60;0.60;;;7.30;99.90;;;;;;5033660;28;20227;-77
2021/11/12 01:59:48;;;;;;;0.50;0.40;;;7.40;99.90;;;;;;5042694;28;20194;-78
2021/11/12 02:02:16;;;;;;;0.50;0.40;;;7.40;99.90;;;;;;5039037;28;20200;-79
2021/11/12 02:04:43;;;;;;;0.50;0.40;;;7.40;99.90;;;;;;5037693;28;20260;-78
2021/11/12 02:07:11;;;;;;;0.75;0.73;;;7.40;99.90;;;;;;5036894;28;20219;-79
2021/11/12 02:09:38;;;;;;;0.60;0.60;;;7.40;99.90;;;;;;5036851;28;20199;-78
2021/11/12 02:12:17;;;;;;;1.00;1.00;;;7.40;99.90;;;;;;5036631;28;20201;-78
2021/11/12 02:14:44;;;;;;;0.50;0.50;;;7.40;99.90;;;;;;5036927;28;20199;-78
2021/11/12 02:17:15;;;;;;;0.50;0.43;;;7.40;99.90;;;;;;5037131;28;20247;-80
2021/11/12 02:19:48;;;;;;;0.50;0.40;;;7.40;99.90;;;;;;5037616;28;20219;-78
2021/11/12 02:22:17;;;;;;;0.50;0.40;;;7.30;99.90;;;;;;5038829;28;20196;-79
2021/11/12 02:24:50;;;;;;;0.50;0.40;;;7.30;99.90;;;;;;5043110;28;20197;-78
2021/11/12 02:27:18;;;;;;;0.50;0.40;;;7.30;99.90;;;;;;5042237;28;20227;-78
2021/11/12 02:29:49;;;;;;;0.50;0.40;;;7.30;99.90;;;;;;5041851;28;20205;-78
2021/11/12 02:32:18;;;;;;;0.50;0.40;;;7.20;99.90;;;;;;5040699;28;20214;-78
2021/11/12 02:34:46;;;;;;;0.50;0.40;;;7.20;99.90;;;;;;5038838;28;20208;-78
2021/11/12 02:37:13;;;;;;;0.50;0.40;;;7.10;99.90;;;;;;5038743;28;20219;-79
2021/11/12 02:39:42;;;;;;;2.17;1.27;;;7.10;99.90;;;;;;5037374;28;20200;-79
2021/11/12 02:42:09;;;;;;;0.50;0.43;;;7.10;99.90;;;;;;5038094;28;20197;-78
2021/11/12 02:44:36;;;;;;;0.50;0.40;;;7.20;99.90;;;;;;5039509;28;20209;-79
2021/11/12 02:47:03;;;;;;;0.60;0.40;;;7.20;99.90;;;;;;5040454;28;20276;-80
2021/11/12 02:49:30;;;;;;;0.50;0.40;;;7.10;99.90;;;;;;5043566;28;20200;-80
2021/11/12 02:51:57;;;;;;;0.50;0.40;;;7.10;99.90;;;;;;5037612;28;20201;-80
2021/11/12 02:54:25;;;;;;;0.50;0.50;;;7.10;99.90;;;;;;5036168;28;20199;-80
2021/11/12 02:56:57;;;;;;;0.77;0.77;;;7.10;99.90;;;;;;5035708;28;20228;-78
2021/11/12 02:59:25;;;;;;;0.50;0.40;;;7.10;99.90;;;;;;5036429;28;20232;-79
2021/11/12 03:01:52;;;;;;;0.50;0.50;;;7.00;99.90;;;;;;5035607;28;20203;-80
2021/11/12 03:04:21;;;;;;;0.50;0.40;;;6.90;99.90;;;;;;5035505;28;20623;-79
2021/11/12 03:06:49;;;;;;;0.50;0.40;;;6.90;99.90;;;;;;5035441;28;20216;-80
2021/11/12 03:09:16;;;;;;;1.42;1.40;;;6.80;99.90;;;;;;5035106;28;20873;-80
2021/11/12 03:11:44;;;;;;;0.50;0.40;;;6.70;99.90;;;;;;5035558;28;20201;-80
2021/11/12 03:14:15;;;;;;;0.50;0.40;;;6.60;99.90;;;;;;5036237;28;20222;-79
2021/11/12 03:16:42;;;;;;;1.40;0.93;;;6.60;99.90;;;;;;5035442;28;20222;-78
2021/11/12 03:19:11;;;;;;;0.50;0.40;;;6.60;99.90;;;;;;5034925;28;20214;-79
2021/11/12 03:21:38;;;;;;;2.05;0.70;;;6.50;99.90;;;;;;5035131;28;20632;-80
2021/11/12 03:24:09;;;;;;;0.52;0.40;;;6.50;99.90;;;;;;5035527;28;20204;-79
2021/11/12 03:26:40;;;;;;;0.50;0.40;;;6.50;99.90;;;;;;5034783;28;20212;-79
2021/11/12 03:59:56;;;;;;;0.50;0.40;;;5.50;99.90;;;;;;5035996;28;20206;-80
2021/11/12 04:02:33;;;;;;;0.50;0.40;;;5.50;99.90;;;;;;5035022;28;20184;-78
2021/11/12 04:05:20;;;;;;;0.50;0.40;;;5.50;99.90;;;;;;5035311;28;20640;-79
2021/11/12 04:18:50;;;;;;;0.50;0.40;;;5.10;99.90;;;;;;5004449;28;20576;-79
2021/11/12 04:40:55;;;;;;;0.50;0.40;;;4.70;99.90;;;;;;5034293;28;20210;-80
2021/11/12 04:49:39;;;;;;;0.50;0.50;;;4.40;99.90;;;;;;4973632;28;20213;-80
2021/11/12 05:09:35;;;;;;;0.50;0.40;;;4.20;99.90;;;;;;5034481;28;20573;-80
2021/11/12 05:11:48;;;;;;;34.22;31.77;;;3.90;99.90;;;;;;5034846;28;20637;-77
2021/11/12 05:44:42;;;;;;;1.98;1.77;;;4.40;99.90;;;;;;5056372;28;20178;-80
2021/11/12 05:49:59;;;;;;;1.13;1.13;;;4.50;99.90;;;;;;5036402;28;20699;-78
2021/11/12 05:55:09;;;;;;;0.50;0.40;;;4.50;99.90;;;;;;5037618;28;20198;-78
2021/11/12 05:57:38;;;;;;;1.45;1.35;;;4.40;99.90;;;;;;5036575;28;20262;-79
2021/11/12 06:00:09;;;;;;;0.50;0.40;;;4.40;99.90;;;;;;5036966;28;20640;-80
2021/11/12 06:02:36;;;;;;;0.50;0.40;;;4.30;99.90;;;;;;5035820;28;20213;-79
2021/11/12 06:05:02;;;;;;;0.50;0.40;;;4.30;99.90;;;;;;5036581;28;20211;-79
2021/11/12 06:07:29;;;;;;;0.50;0.40;;;4.30;99.90;;;;;;5037121;28;20211;-79
2021/11/12 06:09:56;;;;;;;0.50;0.40;;;4.30;99.90;;;;;;5037103;28;20223;-78
2021/11/12 06:12:26;;;;;;;0.50;0.40;;;4.30;99.90;;;;;;5036578;28;20201;-80
2021/11/12 06:14:53;;;;;;;0.50;0.40;;;4.20;99.90;;;;;;5037019;28;20742;-80
2021/11/12 06:17:21;;;;;;;0.50;0.40;;;4.10;99.90;;;;;;5036545;28;20242;-79
2021/11/12 06:19:48;;;;;;;0.50;0.40;;;4.00;99.90;;;;;;5036698;28;20199;-80
2021/11/12 06:22:15;;;;;;;0.50;0.40;;;4.10;99.90;;;;;;5045237;28;20183;-78
2021/11/12 06:24:42;;;;;;;0.50;0.40;;;4.00;99.90;;;;;;5056091;28;20191;-80
2021/11/12 06:27:10;;;;;;;0.50;0.40;;;4.00;99.90;;;;;;5055836;28;20238;-79
2021/11/12 06:29:40;;;;;;;0.50;0.40;;;4.00;99.90;;;;;;5056794;28;20218;-79
2021/11/12 06:32:08;;;;;;;0.50;0.40;;;3.90;99.90;;;;;;5056608;28;20694;-79
2021/11/12 06:34:36;;;;;;;0.50;0.40;;;3.80;99.90;;;;;;5057533;28;20199;-80
2021/11/12 06:37:03;;;;;;;0.50;0.40;;;3.80;99.90;;;;;;5055622;28;20218;-77
2021/11/12 06:39:30;;;;;;;0.50;0.40;;;3.70;99.90;;;;;;5055346;28;20217;-78
2021/11/12 06:41:59;;;;;;;0.50;0.40;;;3.60;99.90;;;;;;5056139;28;20273;-79
2021/11/12 06:44:44;;;;;;;0.50;0.40;;;3.60;99.90;;;;;;5054708;28;20229;-78
2021/11/12 06:50:03;;;;;;;0.50;0.40;;;3.70;99.90;;;;;;5053348;28;20210;-77
2021/11/12 06:52:33;;;;;;;1.70;1.60;;;3.60;99.90;;;;;;5053027;28;20194;-79
2021/11/12 06:55:02;;;;;;;2.25;1.05;;;3.60;99.90;;;;;;5053133;28;20202;-78
2021/11/12 06:57:29;;;;;;;1.25;0.65;;;3.70;99.90;;;;;;5053646;28;20301;-77
2021/11/12 06:59:56;;;;;;;0.50;0.40;;;3.80;99.90;;;;;;5053808;28;20274;-78
2021/11/12 07:02:25;;;;;;;0.50;0.40;;;3.90;99.90;;;;;;5053379;28;20197;-77
2021/11/12 07:04:51;;;;;;;0.70;0.60;;;3.90;99.90;;;;;;5053656;28;20547;-77
2021/11/12 07:07:20;;;;;;;0.52;0.52;;;3.90;99.90;;;;;;5052517;28;20700;-77
2021/11/12 07:09:47;;;;;;;2.78;2.58;;;4.10;99.90;;;;;;5053068;28;20676;-78
2021/11/12 07:12:15;;;;;;;0.60;0.60;;;4.20;99.90;;;;;;5052484;28;20282;-79
2021/11/12 07:14:42;;;;;;;1.40;1.30;;;4.20;99.90;;;;;;5053823;28;20546;-78
2021/11/12 07:17:09;;;;;;;9.20;5.45;;;4.30;99.90;;;;;;5053627;28;20221;-78
2021/11/12 07:19:36;;;;;;;3.58;3.28;;;4.40;99.90;;;;;;5049769;28;20198;-78
2021/11/12 07:22:03;;;;;;;0.82;0.82;;;4.50;99.90;;;;;;5053063;28;20191;-77
2021/11/12 07:24:31;;;;;;;0.50;0.50;;;4.50;99.90;;;;;;5053064;28;20198;-78
2021/11/12 07:26:58;;;;;;;3.70;1.08;;;4.60;99.90;;;;;;5053443;28;20214;-78
2021/11/12 07:29:27;;;;;;;0.50;0.40;;;4.60;99.90;;;;;;5051996;28;20215;-78
2021/11/12 07:31:54;;;;;;;2.60;2.50;;;4.50;99.90;;;;;;5053107;28;20230;-79
2021/11/12 07:34:24;;;;;;;0.50;0.40;;;4.50;99.90;;;;;;5053970;28;20187;-79
2021/11/12 07:36:52;;;;;;;1.73;0.85;;;4.50;99.90;;;;;;5053947;28;20214;-79
2021/11/12 07:39:22;;;;;;;3.40;3.15;;;4.60;99.90;;;;;;5053924;28;20199;-78
2021/11/12 07:42:11;;;;;;;2.05;1.15;;;4.70;99.90;;;;;;5054352;28;20205;-78
2021/11/12 07:45:00;;;;;;;3.65;2.47;;;4.90;99.90;;;;;;5052659;28;20250;-78
2021/11/12 07:47:27;;;;;;;5.10;4.60;;;5.10;99.90;;;;;;5052437;28;20230;-78
2021/11/12 07:49:55;;;;;;;7.32;3.15;;;5.20;99.90;;;;;;5052804;28;20211;-79
2021/11/12 07:52:25;;;;;;;1.05;1.05;;;5.30;99.90;;;;;;5053482;28;20680;-78
2021/11/12 07:54:52;;;;;;;4.97;2.70;;;5.40;99.90;;;;;;5053463;28;20202;-78
2021/11/12 07:57:21;;;;;;;4.05;3.75;;;5.60;99.90;;;;;;5052807;28;20242;-80
2021/11/12 07:59:48;;;;;;;1.17;0.95;;;5.70;99.90;;;;;;5053177;28;20206;-79
2021/11/12 08:02:17;;;;;;;0.50;0.50;;;5.80;99.90;;;;;;5053356;28;20202;-78
2021/11/12 08:04:44;;;;;;;5.68;4.28;;;5.80;99.90;;;;;;5052896;28;20664;-79
2021/11/12 08:07:11;;;;;;;5.72;3.15;;;5.70;99.90;;;;;;5053276;28;20584;-79
2021/11/12 08:09:41;;;;;;;3.88;2.80;;;5.50;99.90;;;;;;5053828;28;20210;-78
2021/11/12 08:12:11;;;;;;;3.20;1.50;;;5.60;99.90;;;;;;5053121;28;20233;-78
2021/11/12 08:14:49;;;;;;;2.45;2.22;;;5.50;99.90;;;;;;5053837;28;20198;-78
2021/11/12 08:17:25;;;;;;;2.03;1.92;;;5.50;99.90;;;;;;5053215;28;20304;-77
2021/11/12 08:19:55;;;;;;;7.55;5.15;;;5.50;99.90;;;;;;5053036;28;20199;-78
2021/11/12 08:22:27;;;;;;;5.03;3.90;;;5.50;99.90;;;;;;5052542;28;20201;-78
2021/11/12 08:25:05;;;;;;;4.03;2.55;;;5.40;99.90;;;;;;5052672;28;20233;-78
2021/11/12 08:27:51;;;;;;;0.93;0.88;;;5.50;99.90;;;;;;5052276;28;20224;-77
2021/11/12 08:33:14;;;;;;;8.70;3.30;;;5.50;99.90;;;;;;5034880;28;20273;-78
2021/11/12 08:35:54;;;;;;;3.70;2.03;;;5.60;99.90;;;;;;5052391;28;20182;-77
2021/11/12 08:38:28;;;;;;;4.82;3.92;;;5.60;99.90;;;;;;5053223;28;20291;-76
2021/11/12 08:41:02;;;;;;;5.85;4.60;;;5.50;99.90;;;;;;5052986;28;20260;-78
2021/11/12 08:43:32;;;;;;;8.35;4.25;;;5.50;99.90;;;;;;5052466;28;20197;-78
2021/11/12 08:46:08;;;;;;;2.70;2.50;;;5.50;99.90;;;;;;5052113;28;20240;-78
2021/11/12 08:48:42;;;;;;;9.25;3.50;;;5.60;99.90;;;;;;5052064;28;20185;-79
2021/11/12 08:51:13;;;;;;;0.60;0.50;;;5.70;99.90;;;;;;5052106;28;20209;-79
2021/11/12 08:53:41;;;;;;;4.63;3.63;;;5.70;99.90;;;;;;5052625;28;20179;-78
2021/11/12 08:56:12;;;;;;;10.23;3.05;;;5.70;99.90;;;;;;5052123;28;20195;-78
2021/11/12 08:58:40;;;;;;;3.70;2.15;;;5.70;99.90;;;;;;5051859;28;20198;-78
2021/11/12 09:01:08;;;;;;;5.97;2.42;;;5.60;99.90;;;;;;5051710;28;20224;-79
2021/11/12 09:03:36;;;;;;;2.53;1.95;;;5.60;99.90;;;;;;5051647;28;20199;-79
2021/11/12 09:06:03;;;;;;;1.40;1.35;;;5.50;99.90;;;;;;5051364;28;20302;-78
2021/11/12 09:08:30;;;;;;;0.70;0.70;;;5.50;99.90;;;;;;5051397;28;20191;-78
2021/11/12 09:10:57;;;;;;;2.85;0.93;;;5.50;99.90;;;;;;5051278;28;20214;-78
2021/11/12 09:13:27;;;;;;;7.82;4.05;;;5.60;99.90;;;;;;5052336;28;20195;-78
2021/11/12 09:15:56;;;;;;;6.88;3.35;;;5.70;99.90;;;;;;5051950;28;20206;-78
2021/11/12 09:18:25;;;;;;;0.90;0.63;;;5.70;99.90;;;;;;5052692;28;20201;-77
2021/11/12 09:20:52;;;;;;;9.35;5.47;;;5.60;99.90;;;;;;5051257;28;20265;-77
2021/11/12 09:23:20;;;;;;;6.88;4.57;;;5.70;99.90;;;;;;5052114;28;20245;-77
2021/11/12 09:25:47;;;;;;;7.38;6.70;;;5.80;99.90;;;;;;5051793;28;20199;-78
2021/11/12 09:28:14;;;;;;;1.02;0.90;;;5.80;99.90;;;;;;5051833;28;20708;-76
2021/11/12 09:30:42;;;;;;;6.72;4.57;;;5.80;99.90;;;;;;5050906;28;20219;-77
2021/11/12 09:33:08;;;;;;;7.80;4.07;;;5.90;99.90;;;;;;5051455;28;20556;-78
2021/11/12 09:35:37;;;;;;;4.45;4.10;;;5.80;99.90;;;;;;5051673;28;20191;-78
2021/11/12 09:38:04;;;;;;;2.15;1.55;;;5.80;99.90;;;;;;5051357;28;20593;-77
2021/11/12 09:40:31;;;;;;;0.80;0.80;;;5.80;99.90;;;;;;5053033;28;20199;-77
2021/11/12 09:42:58;;;;;;;0.50;0.40;;;5.80;99.90;;;;;;5051671;28;20206;-78
2021/11/12 09:45:25;;;;;;;3.05;2.40;;;6.00;99.90;;;;;;5051312;28;20203;-81
2021/11/12 09:47:54;;;;;;;0.63;0.63;;;6.30;99.90;;;;;;5051281;28;20215;-77
2021/11/12 09:50:25;;;;;;;1.60;1.60;;;6.40;99.90;;;;;;5050979;28;20215;-77
2021/11/12 09:52:54;;;;;;;1.20;1.20;;;6.50;99.90;;;;;;5051201;28;20634;-77
2021/11/12 09:55:21;;;;;;;4.20;3.80;;;6.70;99.90;;;;;;5050640;28;20206;-79
2021/11/12 09:57:49;;;;;;;3.70;3.50;;;7.00;99.90;;;;;;5051535;28;20245;-78
2021/11/12 10:00:20;;;;;;;1.20;1.05;;;7.30;99.90;;;;;;5052041;28;20195;-78
2021/11/12 10:02:49;;;;;;;1.67;1.58;;;7.30;99.90;;;;;;5055362;28;20182;-78
2021/11/12 10:05:29;;;;;;;9.57;2.92;;;7.40;99.90;;;;;;5054856;28;20239;-79
2021/11/12 10:07:57;;;;;;;6.38;3.90;;;7.60;99.90;;;;;;5051828;28;20699;-77
2021/11/12 10:10:25;;;;;;;1.63;1.50;;;7.90;99.90;;;;;;5054572;28;20216;-77
2021/11/12 10:12:54;;;;;;;2.08;1.88;;;8.20;99.90;;;;;;5054833;28;20204;-78
2021/11/12 10:15:25;;;;;;;1.40;1.30;;;8.20;99.90;;;;;;5054816;28;20342;-77
2021/11/12 10:17:53;;;;;;;7.07;3.75;;;8.20;99.90;;;;;;5054763;28;20265;-78
2021/11/12 10:20:22;;;;;;;1.45;1.15;;;8.20;99.90;;;;;;5054370;28;20687;-78
2021/11/12 10:22:51;;;;;;;2.63;1.27;;;8.40;99.90;;;;;;5054876;28;20285;-78
2021/11/12 10:25:21;;;;;;;0.50;0.40;;;8.70;99.90;;;;;;5054616;28;20201;-78
2021/11/12 10:27:51;;;;;;;0.50;0.40;;;9.30;99.90;;;;;;5054703;28;20284;-77
2021/11/12 10:30:20;;;;;;;1.00;1.00;;;9.70;99.90;;;;;;5053808;28;20222;-78
2021/11/12 10:32:47;;;;;;;0.68;0.68;;;10.20;99.90;;;;;;5053915;28;20555;-77
2021/11/12 10:35:21;;;;;;;0.50;0.40;;;10.40;99.90;;;;;;5055503;28;20195;-78
2021/11/12 10:37:47;;;;;;;0.60;0.60;;;10.90;99.90;;;;;;5055449;28;20253;-78
2021/11/12 10:40:17;;;;;;;0.50;0.40;;;11.20;99.90;;;;;;5054804;28;20202;-78
2021/11/12 10:42:48;;;;;;;4.50;1.90;;;11.00;99.90;;;;;;5054285;28;20202;-77
2021/11/12 10:45:16;;;;;;;2.00;1.85;;;11.10;99.90;;;;;;5054237;28;20205;-78
2021/11/12 10:47:49;;;;;;;0.50;0.40;;;11.00;99.90;;;;;;5040493;28;20223;-77
2021/11/12 10:50:18;;;;;;;1.02;1.02;;;10.50;99.90;;;;;;5033479;28;20225;-78
2021/11/12 10:52:45;;;;;;;2.85;2.55;;;10.20;99.90;;;;;;5033811;28;20203;-79
2021/11/12 10:55:14;;;;;;;0.50;0.40;;;10.10;99.90;;;;;;5033954;28;20202;-78
2021/11/12 10:57:49;;;;;;;0.75;0.60;;;10.10;99.90;;;;;;5033924;28;20592;-77
2021/11/12 11:00:21;;;;;;;2.05;1.95;;;10.50;99.90;;;;;;5033088;28;20652;-78
2021/11/12 11:02:50;;;;;;;1.10;1.10;;;10.40;99.90;;;;;;5033657;28;20188;-78
2021/11/12 11:05:20;;;;;;;1.90;1.20;;;10.00;99.90;;;;;;5034014;28;20205;-78
2021/11/12 11:07:49;;;;;;;0.60;0.60;;;9.90;99.90;;;;;;5033363;28;20219;-78
2021/11/12 11:10:26;;;;;;;1.80;1.70;;;9.90;99.90;;;;;;5033283;28;20715;-78
2021/11/12 11:12:55;;;;;;;0.63;0.60;;;10.00;99.90;;;;;;5032697;28;20691;-78
2021/11/12 11:15:28;;;;;;;1.25;1.15;;;10.00;99.90;;;;;;5033360;28;20625;-77
2021/11/12 11:18:21;;;;;;;6.15;3.00;;;10.10;99.90;;;;;;5034142;28;20221;-76
2021/11/12 11:21:03;;;;;;;2.88;1.80;;;10.20;99.90;;;;;;5029610;28;20626;-78
2021/11/12 11:23:31;;;;;;;0.50;0.40;;;10.30;99.90;;;;;;5033861;28;20269;-79
2021/11/12 11:26:05;;;;;;;0.50;0.40;;;10.60;99.90;;;;;;5033429;28;20207;-78
2021/11/12 11:28:36;;;;;;;0.60;0.40;;;11.00;99.90;;;;;;5033714;28;20180;-77
2021/11/12 11:31:05;;;;;;;1.97;1.73;;;11.30;99.90;;;;;;5033020;28;20485;-78
2021/11/12 11:33:32;;;;;;;4.20;3.73;;;11.60;99.90;;;;;;5033398;28;20441;-77
2021/11/12 11:36:03;;;;;;;3.25;2.55;;;11.30;99.90;;;;;;5032905;28;20461;-77
2021/11/12 11:38:32;;;;;;;26.03;14.27;;;11.00;99.90;;;;;;5033171;28;20206;-78
2021/11/12 11:41:02;;;;;;;1.90;1.23;;;11.30;99.90;;;;;;5032666;28;20438;-78
2021/11/12 11:43:29;;;;;;;1.80;1.70;;;11.50;99.90;;;;;;5033209;28;20541;-78
2021/11/12 11:46:00;;;;;;;1.30;0.70;;;11.60;99.90;;;;;;5033504;28;20445;-77
2021/11/12 11:48:27;;;;;;;4.20;3.90;;;11.80;99.90;;;;;;5032808;28;20442;-78
2021/11/12 11:50:56;;;;;;;0.50;0.47;;;11.80;99.90;;;;;;5032797;28;20502;-78
2021/11/12 11:53:26;;;;;;;0.67;0.67;;;11.90;99.90;;;;;;5033211;28;20815;-78
2021/11/12 11:56:10;;;;;;;0.50;0.40;;;12.10;99.90;;;;;;5032485;28;20765;-77
2021/11/12 11:58:41;;;;;;;6.97;5.13;;;12.10;99.90;;;;;;5033167;28;20422;-78
2021/11/12 12:01:31;;;;;;;0.50;0.40;;;12.00;99.90;;;;;;5032225;28;20529;-78
2021/11/12 12:04:38;;;;;;;0.50;0.47;;;11.80;99.90;;;;;;5022782;28;20976;-78
2021/11/12 12:07:30;;;;;;;5.67;2.40;;;11.50;99.90;;;;;;5032727;28;20565;-77
2021/11/12 12:10:19;;;;;;;0.50;0.43;;;11.40;99.90;;;;;;5025575;28;20470;-79
2021/11/12 12:12:52;;;;;;;0.50;0.40;;;11.30;99.90;;;;;;5033732;28;20437;-77
2021/11/12 12:15:39;;;;;;;1.70;1.60;;;10.90;99.90;;;;;;5032175;28;20444;-79
2021/11/12 12:18:25;;;;;;;0.50;0.40;;;10.50;99.90;;;;;;5032309;28;20226;-78
2021/11/12 12:21:28;;;;;;;2.00;1.80;;;10.30;99.90;;;;;;5032250;28;20190;-78
2021/11/12 12:35:57;;;;;;;5.07;0.98;;;10.40;99.90;;;;;;5022753;28;20269;-78
2021/11/12 12:39:37;;;;;;;0.52;0.52;;;10.30;99.90;;;;;;5032195;28;20175;-78
2021/11/12 13:22:46;;;;;;;2.93;2.73;;;11.40;99.90;;;;;;5031052;28;20420;-80
2021/11/12 13:25:25;;;;;;;1.10;1.00;;;11.20;99.90;;;;;;5031797;28;20442;-77
2021/11/12 13:28:08;;;;;;;0.50;0.40;;;11.00;99.90;;;;;;5032056;28;20219;-78
2021/11/12 13:30:35;;;;;;;0.68;0.68;;;11.00;99.90;;;;;;5031512;28;20493;-78
2021/11/12 13:33:02;;;;;;;0.50;0.40;;;11.10;99.90;;;;;;5031989;28;20573;-78
2021/11/12 13:35:30;;;;;;;0.50;0.40;;;11.10;99.90;;;;;;5032499;28;20203;-78
2021/11/12 13:37:57;;;;;;;3.90;2.47;;;11.00;99.90;;;;;;5035045;28;20462;-78
2021/11/12 13:40:29;;;;;;;0.65;0.65;;;11.20;99.90;;;;;;5034962;28;20438;-78
2021/11/12 13:42:56;;;;;;;0.50;0.50;;;11.40;99.90;;;;;;5035088;28;20629;-76
2021/11/12 13:45:25;;;;;;;2.60;0.67;;;11.40;99.90;;;;;;5035207;28;20438;-78
2021/11/12 13:48:09;;;;;;;1.58;1.48;;;11.30;99.90;;;;;;5035266;28;20469;-78
2021/11/12 13:50:37;;;;;;;0.88;0.88;;;11.30;99.90;;;;;;5035424;28;20198;-78
2021/11/12 13:53:05;;;;;;;0.80;0.63;;;11.30;99.90;;;;;;5034946;28;20211;-78
2021/11/12 13:55:36;;;;;;;0.50;0.40;;;11.10;99.90;;;;;;5038020;28;20214;-80
2021/11/12 13:58:04;;;;;;;3.63;1.40;;;11.20;99.90;;;;;;5050774;28;20842;-78
2021/11/12 14:00:32;;;;;;;1.15;0.88;;;11.10;99.90;;;;;;5054324;28;20209;-77
2021/11/12 14:03:05;;;;;;;1.13;0.90;;;11.10;99.90;;;;;;5054660;28;20202;-78
2021/11/12 14:05:33;;;;;;;5.33;3.17;;;11.00;99.90;;;;;;5053650;28;20449;-77
2021/11/12 14:08:05;;;;;;;0.80;0.75;;;10.80;99.90;;;;;;5054201;28;20492;-77
2021/11/12 14:10:36;;;;;;;0.50;0.40;;;10.80;99.90;;;;;;5053247;28;20707;-78
2021/11/12 14:13:06;;;;;;;0.50;0.40;;;10.60;99.90;;;;;;5054310;28;20445;-78
2021/11/12 14:15:38;;;;;;;0.50;0.40;;;10.70;99.90;;;;;;5054251;28;20348;-79
2021/11/12 14:18:28;;;;;;;0.50;0.40;;;10.60;99.90;;;;;;5054344;28;20456;-77
2021/11/12 14:21:07;;;;;;;0.50;0.40;;;10.60;99.90;;;;;;5054325;28;20432;-77
2021/11/12 14:23:49;;;;;;;0.50;0.40;;;10.60;99.90;;;;;;5045274;28;20241;-76
2021/11/12 14:26:25;;;;;;;2.78;2.67;;;10.70;99.90;;;;;;5047384;28;20194;-78
2021/11/12 14:28:54;;;;;;;0.60;0.60;;;10.60;99.90;;;;;;5054473;28;20182;-78
2021/11/12 14:31:46;;;;;;;0.80;0.80;;;10.60;99.90;;;;;;5053555;28;20268;-77
2021/11/12 14:34:26;;;;;;;0.50;0.40;;;10.50;99.90;;;;;;5054771;28;20444;-77
2021/11/12 14:36:57;;;;;;;0.60;0.60;;;10.50;99.90;;;;;;5053920;28;20310;-78
2021/11/12 14:39:37;;;;;;;1.40;1.30;;;10.50;99.90;;;;;;5054021;28;20448;-77
2021/11/12 14:42:35;;;;;;;0.50;0.40;;;10.40;99.90;;;;;;5053632;28;20178;-78
2021/11/12 14:45:09;;;;;;;0.50;0.40;;;10.30;99.90;;;;;;5054179;28;20183;-78
2021/11/12 14:47:43;;;;;;;0.50;0.40;;;10.20;99.90;;;;;;5056007;28;20210;-78
2021/11/12 14:50:34;;;;;;;0.50;0.40;;;10.20;99.90;;;;;;5054507;28;20190;-78
2021/11/12 14:53:22;;;;;;;1.15;1.05;;;10.10;99.90;;;;;;5053534;28;20203;-78
2021/11/12 14:55:55;;;;;;;1.27;0.98;;;10.10;99.90;;;;;;5053544;28;20198;-78
2021/11/12 14:58:24;;;;;;;0.50;0.40;;;10.00;99.90;;;;;;5054014;28;20275;-78
2021/11/12 15:00:52;;;;;;;0.63;0.63;;;10.00;99.90;;;;;;5057158;28;20214;-79
2021/11/12 15:03:19;;;;;;;0.50;0.40;;;9.90;99.90;;;;;;5053956;28;20209;-78
2021/11/12 15:05:45;;;;;;;0.50;0.40;;;9.90;99.90;;;;;;5053504;28;20312;-78
2021/11/12 15:08:17;;;;;;;0.50;0.40;;;9.80;99.90;;;;;;5053007;28;20218;-78
2021/11/12 15:10:44;;;;;;;0.50;0.40;;;9.70;99.90;;;;;;5053147;28;20211;-78
2021/11/12 15:13:11;;;;;;;1.27;0.77;;;9.70;99.90;;;;;;5053384;28;20194;-78
2021/11/12 15:15:39;;;;;;;0.75;0.75;;;9.60;99.90;;;;;;5053236;28;20444;-78
2021/11/12 15:18:07;;;;;;;0.50;0.50;;;9.60;99.90;;;;;;5052783;28;20674;-77
2021/11/12 15:20:36;;;;;;;0.90;0.90;;;9.50;99.90;;;;;;5052958;28;20205;-80
2021/11/12 15:23:32;;;;;;;0.50;0.40;;;9.40;99.90;;;;;;5053857;28;20288;-78
2021/11/12 15:26:14;;;;;;;0.50;0.40;;;9.30;99.90;;;;;;5053077;28;20678;-76
2021/11/12 15:28:54;;;;;;;1.95;1.85;;;9.20;99.90;;;;;;5053016;28;20199;-78
2021/11/12 15:31:24;;;;;;;0.50;0.40;;;9.10;99.90;;;;;;5052477;28;20232;-78
2021/11/12 15:33:58;;;;;;;0.88;0.88;;;9.10;99.90;;;;;;5053408;28;20205;-78
2021/11/12 15:36:25;;;;;;;0.73;0.73;;;9.00;99.90;;;;;;5052691;28;20214;-78
2021/11/12 15:38:55;;;;;;;0.93;0.93;;;9.00;99.90;;;;;;5052954;28;20202;-79
2021/11/12 15:41:46;;;;;;;0.50;0.40;;;8.90;99.90;;;;;;5052926;28;20233;-78
2021/11/12 15:44:15;;;;;;;0.50;0.40;;;8.90;99.90;;;;;;5052942;28;20201;-78
2021/11/12 15:46:44;;;;;;;0.50;0.40;;;8.80;99.90;;;;;;5053157;28;20234;-78
2021/11/12 15:49:11;;;;;;;0.50;0.40;;;8.80;99.90;;;;;;5052781;28;20664;-79
2021/11/12 15:51:40;;;;;;;0.50;0.50;;;8.70;99.90;;;;;;5052678;28;20416;-78
2021/11/12 15:54:19;;;;;;;0.50;0.40;;;8.70;99.90;;;;;;5052750;28;20452;-78
2021/11/12 15:59:36;;;;;;;0.50;0.40;;;8.50;99.90;;;;;;5052761;28;20192;-78
2021/11/12 16:13:10;;;;;;;0.70;0.70;;;8.40;99.90;;;;;;5062021;28;20213;-79
2021/11/12 16:18:40;;;;;;;0.50;0.40;;;8.40;99.90;;;;;;5005697;28;20277;-79
2021/11/12 16:21:25;;;;;;;1.92;1.25;;;8.30;99.90;;;;;;5063401;28;20209;-78
2021/11/12 16:24:10;;;;;;;0.50;0.40;;;8.30;99.90;;;;;;5061350;28;20197;-81
2021/11/12 16:26:39;;;;;;;0.95;0.73;;;8.30;99.90;;;;;;5062142;28;20580;-79
2021/11/12 16:29:19;;;;;;;0.50;0.40;;;8.30;99.90;;;;;;5058731;28;20244;-79
2021/11/12 16:31:47;;;;;;;0.60;0.40;;;8.20;99.90;;;;;;5055095;28;20561;-79
2021/11/12 16:34:18;;;;;;;0.50;0.50;;;8.20;99.90;;;;;;5056025;28;20198;-79
2021/11/12 16:36:49;;;;;;;0.52;0.52;;;8.20;99.90;;;;;;5056444;28;20270;-78
2021/11/12 16:39:21;;;;;;;0.50;0.40;;;8.20;99.90;;;;;;5058813;28;20192;-77
2021/11/12 16:41:55;;;;;;;0.50;0.40;;;8.20;99.90;;;;;;5057974;28;20199;-79
2021/11/12 16:44:27;;;;;;;0.50;0.47;;;8.20;99.90;;;;;;5059281;28;20242;-80
2021/11/12 16:47:06;;;;;;;0.60;0.60;;;8.20;99.90;;;;;;5058228;28;20221;-76
2021/11/12 16:49:40;;;;;;;1.80;1.67;;;8.10;99.90;;;;;;5059459;28;20205;-79